Time;durP1;ratioP1;P1;durP2;ratioP2;P2;SDS_P1;SDS_P2;PMS_P1;PMS_P2;Temp;Humidity;BMP_temperature;BMP_pressure;BME280_temperature;BME280_humidity;BME280_pressure;Samples;Min_cycle;Max_cycle;Signal;HPM_P1;HPM_P2
2022/09/19 00:01:39;;;;;;;0.40;0.40;;;11.00;99.90;;;;;;5056390;28;20079;-84
2022/09/19 00:04:23;;;;;;;0.40;0.40;;;11.10;99.90;;;;;;5058360;28;20036;-85
2022/09/19 00:06:51;;;;;;;0.30;0.30;;;11.00;99.90;;;;;;5081303;28;20547;-85
2022/09/19 00:09:20;;;;;;;0.45;0.45;;;11.10;99.90;;;;;;5073735;28;20049;-86
2022/09/19 00:11:47;;;;;;;0.30;0.30;;;11.00;99.90;;;;;;5075459;28;20515;-86
2022/09/19 00:14:16;;;;;;;0.40;0.40;;;11.00;99.90;;;;;;5059635;28;20040;-87
2022/09/19 00:16:46;;;;;;;0.43;0.43;;;11.00;99.90;;;;;;5075676;28;20032;-85
2022/09/19 00:19:16;;;;;;;0.30;0.30;;;11.00;99.90;;;;;;5068439;28;20079;-85
2022/09/19 00:21:44;;;;;;;0.40;0.40;;;11.10;99.90;;;;;;5087546;28;20069;-84
2022/09/19 00:26:56;;;;;;;9.85;1.60;;;11.10;99.90;;;;;;5072397;28;20049;-87
2022/09/19 00:29:23;;;;;;;0.40;0.40;;;11.10;99.90;;;;;;5073612;28;20047;-86
2022/09/19 00:31:50;;;;;;;0.40;0.40;;;11.10;99.90;;;;;;5070866;28;20032;-87
2022/09/19 00:34:17;;;;;;;4.57;1.83;;;11.10;99.90;;;;;;5086763;28;20047;-86
2022/09/19 00:36:45;;;;;;;0.30;0.30;;;11.10;99.90;;;;;;5070561;28;20050;-85
2022/09/19 00:39:13;;;;;;;0.40;0.40;;;11.20;99.90;;;;;;5071850;28;20114;-87
2022/09/19 00:41:40;;;;;;;0.30;0.30;;;11.20;99.90;;;;;;5070618;28;20041;-88
2022/09/19 00:44:21;;;;;;;1.27;1.23;;;11.30;99.90;;;;;;5064971;28;20036;-86
2022/09/19 00:46:59;;;;;;;0.40;0.40;;;11.30;99.90;;;;;;5073905;28;20044;-88
2022/09/19 00:49:29;;;;;;;0.40;0.40;;;11.30;99.90;;;;;;5059361;28;20079;-84
2022/09/19 00:52:00;;;;;;;0.73;0.73;;;11.40;99.90;;;;;;5052422;28;20032;-83
2022/09/19 00:54:40;;;;;;;0.50;0.50;;;11.30;99.90;;;;;;5058661;28;20092;-85
2022/09/19 00:57:07;;;;;;;0.40;0.40;;;11.30;99.90;;;;;;5066380;28;20033;-84
2022/09/19 00:59:36;;;;;;;0.30;0.30;;;11.30;99.90;;;;;;5067888;28;20044;-85
2022/09/19 01:02:04;;;;;;;0.40;0.40;;;11.20;99.90;;;;;;5045043;28;20371;-86
2022/09/19 01:04:35;;;;;;;0.40;0.40;;;11.30;99.90;;;;;;5070528;28;20461;-85
2022/09/19 01:07:35;;;;;;;0.38;0.38;;;11.30;99.90;;;;;;5052074;28;20497;-87
2022/09/19 01:10:37;;;;;;;0.30;0.30;;;11.40;99.90;;;;;;5066092;28;20044;-85
2022/09/19 01:13:09;;;;;;;0.40;0.40;;;11.30;99.90;;;;;;5066433;28;20044;-86
2022/09/19 01:15:59;;;;;;;0.30;0.30;;;11.30;99.90;;;;;;5061547;28;20115;-85
2022/09/19 01:18:29;;;;;;;0.40;0.40;;;11.30;99.90;;;;;;5068335;28;20127;-86
2022/09/19 01:20:58;;;;;;;0.43;0.43;;;11.30;99.90;;;;;;5066338;28;20390;-85
2022/09/19 01:23:57;;;;;;;0.43;0.43;;;11.30;99.90;;;;;;5061442;28;20040;-86
2022/09/19 01:26:45;;;;;;;0.40;0.40;;;11.30;99.90;;;;;;5049615;28;20056;-86
2022/09/19 01:29:18;;;;;;;0.38;0.38;;;11.30;99.90;;;;;;5047458;28;20070;-83
2022/09/19 01:31:48;;;;;;;0.47;0.47;;;11.30;99.90;;;;;;5078111;28;20553;-87
2022/09/19 01:34:37;;;;;;;0.40;0.40;;;11.30;99.90;;;;;;5033727;28;20041;-86
2022/09/19 01:37:27;;;;;;;0.30;0.30;;;11.20;99.90;;;;;;5071508;28;20045;-83
2022/09/19 01:39:56;;;;;;;0.40;0.40;;;11.30;99.90;;;;;;5050885;28;20041;-84
2022/09/19 01:42:23;;;;;;;0.40;0.40;;;11.30;99.90;;;;;;5072303;28;20486;-85
2022/09/19 01:44:52;;;;;;;19.48;1.13;;;11.30;99.90;;;;;;5084723;28;20068;-85
2022/09/19 01:47:49;;;;;;;0.30;0.30;;;11.30;99.90;;;;;;5075870;28;20517;-84
2022/09/19 01:50:31;;;;;;;0.38;0.38;;;11.30;99.90;;;;;;5070861;28;20055;-86
2022/09/19 01:53:06;;;;;;;0.52;0.52;;;11.30;99.90;;;;;;5060338;28;20079;-84
2022/09/19 01:55:50;;;;;;;0.40;0.40;;;11.30;99.90;;;;;;5053824;28;20043;-82
2022/09/19 01:58:37;;;;;;;0.43;0.40;;;11.30;99.90;;;;;;5061598;28;20048;-85
2022/09/19 02:01:08;;;;;;;;;;;11.30;99.90;;;;;;5065624;28;20088;-83
2022/09/19 02:03:45;;;;;;;0.30;0.30;;;11.20;99.90;;;;;;5064236;28;20055;-84
2022/09/19 02:06:37;;;;;;;0.52;0.52;;;11.20;99.90;;;;;;5073313;28;20177;-85
2022/09/19 02:09:14;;;;;;;0.40;0.40;;;11.20;99.90;;;;;;5070939;28;20431;-84
2022/09/19 02:11:42;;;;;;;0.60;0.60;;;11.30;99.90;;;;;;5060019;28;20041;-86
2022/09/19 02:14:16;;;;;;;0.90;0.90;;;11.30;99.90;;;;;;5055624;28;20416;-86
2022/09/19 02:16:51;;;;;;;0.90;0.90;;;11.30;99.90;;;;;;5044713;28;20040;-86
2022/09/19 02:19:29;;;;;;;0.40;0.40;;;11.30;99.90;;;;;;5077316;28;20055;-85
2022/09/19 02:21:58;;;;;;;0.40;0.40;;;11.30;99.90;;;;;;5043433;28;20044;-87
2022/09/19 02:24:32;;;;;;;0.57;0.57;;;11.30;99.90;;;;;;5072339;28;20526;-86
2022/09/19 02:27:15;;;;;;;0.40;0.40;;;11.80;99.90;;;;;;5064431;28;20455;-88
2022/09/19 02:29:46;;;;;;;0.30;0.30;;;11.30;99.90;;;;;;5072618;28;20044;-88
2022/09/19 02:32:12;;;;;;;0.40;0.40;;;11.20;99.90;;;;;;5072132;28;20036;-86
2022/09/19 02:34:38;;;;;;;0.40;0.40;;;11.20;99.90;;;;;;5052044;28;20041;-89
2022/09/19 02:37:04;;;;;;;;;;;11.20;99.90;;;;;;5074790;28;20101;-88
2022/09/19 02:39:46;;;;;;;0.45;0.45;;;11.10;99.90;;;;;;5073029;28;20007;-91
2022/09/19 02:42:15;;;;;;;0.43;0.43;;;11.10;99.90;;;;;;5044235;28;20048;-89
2022/09/19 02:44:52;;;;;;;0.40;0.40;;;11.00;99.90;;;;;;5068504;28;20051;-90
2022/09/19 02:47:31;;;;;;;0.70;0.70;;;11.00;99.90;;;;;;5073459;28;20101;-88
2022/09/19 02:50:06;;;;;;;0.40;0.40;;;11.00;99.90;;;;;;5067842;28;20174;-89
2022/09/19 02:52:33;;;;;;;0.30;0.30;;;11.10;99.90;;;;;;5057515;28;20048;-88
2022/09/19 02:55:27;;;;;;;0.88;0.85;;;11.10;99.90;;;;;;5051280;28;20119;-85
2022/09/19 02:57:57;;;;;;;1.27;1.23;;;11.10;99.90;;;;;;5063166;28;20040;-87
2022/09/19 03:00:25;;;;;;;0.30;0.30;;;11.10;99.90;;;;;;5072648;28;20127;-87
2022/09/19 03:04:11;;;;;;;0.45;0.45;;;11.10;99.90;;;;;;5020014;28;20045;-86
2022/09/19 03:05:55;;;;;;;0.40;0.40;;;11.10;99.90;;;;;;5068852;28;21229;-88
2022/09/19 03:08:24;;;;;;;0.45;0.45;;;11.00;99.90;;;;;;5051567;28;20130;-85
2022/09/19 03:10:54;;;;;;;0.40;0.40;;;11.00;99.90;;;;;;5058654;28;20040;-88
2022/09/19 03:13:23;;;;;;;0.40;0.40;;;11.00;99.90;;;;;;5044712;28;20072;-88
2022/09/19 03:16:04;;;;;;;0.45;0.45;;;10.90;99.90;;;;;;5061668;28;20044;-89
2022/09/19 03:18:32;;;;;;;0.32;0.32;;;11.00;99.90;;;;;;5054580;28;20052;-87
2022/09/19 03:21:02;;;;;;;0.40;0.40;;;11.00;99.90;;;;;;5055933;28;20105;-88
2022/09/19 03:23:49;;;;;;;0.50;0.50;;;11.10;99.90;;;;;;5076495;28;20087;-88
2022/09/19 03:26:21;;;;;;;0.50;0.50;;;11.20;99.90;;;;;;5046090;28;20075;-88
2022/09/19 03:28:47;;;;;;;0.73;0.73;;;11.30;99.90;;;;;;5060658;28;20804;-87
2022/09/19 03:31:13;;;;;;;0.60;0.60;;;11.30;99.90;;;;;;5063877;28;20037;-88
2022/09/19 03:33:39;;;;;;;0.60;0.60;;;11.30;99.90;;;;;;5061967;28;20037;-88
2022/09/19 03:36:08;;;;;;;0.60;0.60;;;11.30;99.90;;;;;;5031380;28;20532;-87
2022/09/19 03:38:45;;;;;;;0.60;0.60;;;11.40;99.90;;;;;;5058986;28;20037;-86
2022/09/19 03:41:16;;;;;;;0.40;0.40;;;11.40;99.90;;;;;;5060800;28;20040;-86
2022/09/19 03:43:42;;;;;;;0.40;0.40;;;11.40;99.90;;;;;;5056708;28;20132;-86
2022/09/19 03:46:13;;;;;;;0.40;0.40;;;11.50;99.90;;;;;;5062237;28;20638;-86
2022/09/19 03:48:45;;;;;;;0.55;0.55;;;11.50;99.90;;;;;;5059930;28;20135;-87
2022/09/19 03:51:11;;;;;;;0.63;0.63;;;11.50;99.90;;;;;;5061257;28;20095;-86
2022/09/19 03:53:37;;;;;;;0.30;0.30;;;11.50;99.90;;;;;;5042404;28;20044;-84
2022/09/19 03:56:04;;;;;;;0.30;0.30;;;11.40;99.90;;;;;;5053433;28;20036;-85
2022/09/19 03:58:30;;;;;;;0.40;0.40;;;11.40;99.90;;;;;;5062516;28;20040;-84
2022/09/19 04:00:59;;;;;;;0.38;0.38;;;11.40;99.90;;;;;;5025819;28;20049;-85
2022/09/19 04:03:25;;;;;;;0.35;0.35;;;11.40;99.90;;;;;;5057826;28;20053;-86
2022/09/19 04:05:51;;;;;;;0.47;0.47;;;11.30;99.90;;;;;;5037587;28;20068;-85
2022/09/19 04:08:18;;;;;;;1.02;1.02;;;11.30;99.90;;;;;;5054713;28;20037;-85
2022/09/19 04:10:44;;;;;;;0.70;0.70;;;11.30;99.90;;;;;;5043045;28;20039;-83
2022/09/19 04:13:10;;;;;;;0.40;0.40;;;11.40;99.90;;;;;;5042788;28;20743;-86
2022/09/19 04:15:40;;;;;;;0.40;0.40;;;11.30;99.90;;;;;;5061602;28;20039;-87
2022/09/19 04:18:07;;;;;;;0.70;0.70;;;11.40;99.90;;;;;;5032535;28;20228;-87
2022/09/19 04:20:39;;;;;;;0.40;0.40;;;11.40;99.90;;;;;;5045763;28;20499;-87
2022/09/19 04:23:05;;;;;;;0.30;0.30;;;11.40;99.90;;;;;;5059085;28;20397;-89
2022/09/19 04:25:35;;;;;;;1.08;0.60;;;11.40;99.90;;;;;;5066390;28;20088;-88
2022/09/19 04:28:03;;;;;;;0.40;0.40;;;11.30;99.90;;;;;;5051410;28;20490;-89
2022/09/19 04:30:30;;;;;;;0.38;0.38;;;11.30;99.90;;;;;;5069057;28;20092;-88
2022/09/19 04:32:58;;;;;;;0.40;0.40;;;11.20;99.90;;;;;;5054936;28;20104;-87
2022/09/19 04:35:24;;;;;;;0.30;0.30;;;11.10;99.90;;;;;;5055284;28;20559;-87
2022/09/19 04:37:51;;;;;;;1.30;1.30;;;11.00;99.90;;;;;;5048002;28;20048;-86
2022/09/19 04:40:18;;;;;;;0.88;0.82;;;10.90;99.90;;;;;;5044882;28;20044;-85
2022/09/19 04:42:45;;;;;;;0.60;0.60;;;10.90;99.90;;;;;;5064622;28;20057;-86
2022/09/19 04:45:11;;;;;;;0.40;0.40;;;11.00;99.90;;;;;;5051215;28;20063;-86
2022/09/19 04:47:38;;;;;;;0.40;0.40;;;11.00;99.90;;;;;;5034057;28;20097;-86
2022/09/19 04:50:10;;;;;;;0.50;0.50;;;11.20;99.90;;;;;;5052159;28;20155;-86
2022/09/19 04:52:42;;;;;;;0.40;0.40;;;11.00;99.90;;;;;;5065395;28;20497;-86
2022/09/19 04:55:09;;;;;;;0.30;0.30;;;11.00;99.90;;;;;;5027225;28;20040;-86
2022/09/19 04:57:35;;;;;;;0.30;0.30;;;11.10;99.90;;;;;;5047606;28;20032;-87
2022/09/19 05:00:02;;;;;;;0.40;0.40;;;11.10;99.90;;;;;;5071582;28;20521;-85
2022/09/19 05:02:30;;;;;;;0.30;0.30;;;11.10;99.90;;;;;;5070123;28;20055;-85
2022/09/19 05:04:56;;;;;;;0.30;0.30;;;11.10;99.90;;;;;;5078391;28;20498;-83
2022/09/19 05:07:33;;;;;;;1.17;1.08;;;11.20;99.90;;;;;;5064412;28;20047;-84
2022/09/19 05:10:02;;;;;;;0.50;0.50;;;11.20;99.90;;;;;;5061180;28;20046;-85
2022/09/19 05:12:29;;;;;;;0.40;0.40;;;11.10;99.90;;;;;;5092003;28;20039;-84
2022/09/19 05:14:55;;;;;;;0.40;0.40;;;11.20;99.90;;;;;;5044400;28;20044;-85
2022/09/19 05:17:21;;;;;;;0.50;0.50;;;11.10;99.90;;;;;;5059754;28;20048;-86
2022/09/19 05:19:47;;;;;;;0.50;0.50;;;11.10;99.90;;;;;;5065043;28;20482;-86
2022/09/19 05:22:13;;;;;;;2.63;1.75;;;11.10;99.90;;;;;;5059564;28;20127;-86
2022/09/19 05:24:44;;;;;;;0.40;0.40;;;11.10;99.90;;;;;;5071512;28;20052;-86
2022/09/19 05:27:11;;;;;;;0.40;0.40;;;11.20;99.90;;;;;;5042558;28;20045;-86
2022/09/19 05:29:39;;;;;;;0.40;0.40;;;11.10;99.90;;;;;;5069084;28;20052;-87
2022/09/19 05:32:06;;;;;;;0.40;0.40;;;11.10;99.90;;;;;;5068298;28;20048;-87
2022/09/19 05:34:32;;;;;;;0.40;0.40;;;11.20;99.90;;;;;;5069750;28;20137;-89
2022/09/19 05:36:58;;;;;;;2.90;0.70;;;11.30;99.90;;;;;;5063701;28;20036;-90
2022/09/19 05:39:23;;;;;;;0.50;0.50;;;11.30;99.90;;;;;;5059338;28;20047;-89
2022/09/19 05:41:49;;;;;;;0.40;0.40;;;11.30;99.90;;;;;;5078516;28;20037;-89
2022/09/19 05:44:16;;;;;;;0.40;0.40;;;11.30;99.90;;;;;;5065874;28;20036;-89
2022/09/19 05:46:43;;;;;;;0.50;0.50;;;11.40;99.90;;;;;;5044597;28;20032;-89
2022/09/19 05:49:10;;;;;;;0.45;0.45;;;11.40;99.90;;;;;;5048107;28;20048;-87
2022/09/19 05:51:36;;;;;;;0.47;0.47;;;11.40;99.90;;;;;;5061279;28;20064;-90
2022/09/19 05:54:01;;;;;;;0.73;0.73;;;11.40;99.90;;;;;;5066423;28;20098;-87
2022/09/19 05:56:29;;;;;;;0.40;0.40;;;11.40;99.90;;;;;;5059935;28;20032;-89
2022/09/19 05:58:56;;;;;;;0.30;0.30;;;11.40;99.90;;;;;;5046561;28;20561;-90
2022/09/19 06:01:22;;;;;;;0.70;0.70;;;11.40;99.90;;;;;;5061052;28;20098;-88
2022/09/19 06:03:49;;;;;;;0.40;0.40;;;11.40;99.90;;;;;;5069813;28;20123;-89
2022/09/19 06:06:20;;;;;;;0.43;0.43;;;11.40;99.90;;;;;;5051121;28;20061;-87
2022/09/19 06:08:55;;;;;;;0.40;0.40;;;11.40;99.90;;;;;;5094349;28;20139;-87
2022/09/19 06:11:21;;;;;;;0.40;0.40;;;11.50;99.90;;;;;;5056312;28;20032;-89
2022/09/19 06:16:39;;;;;;;0.40;0.40;;;11.50;99.90;;;;;;5074947;28;20040;-87
2022/09/19 06:19:06;;;;;;;0.40;0.40;;;11.50;99.90;;;;;;5061647;28;20040;-86
2022/09/19 06:21:34;;;;;;;8.57;4.07;;;11.50;99.90;;;;;;5081773;28;20044;-88
2022/09/19 06:24:01;;;;;;;0.63;0.63;;;11.60;99.90;;;;;;5084731;28;20044;-88
2022/09/19 06:26:27;;;;;;;0.38;0.38;;;11.60;99.90;;;;;;5055175;28;20117;-86
2022/09/19 06:28:55;;;;;;;0.40;0.40;;;11.60;99.90;;;;;;5054679;28;20044;-87
2022/09/19 06:31:20;;;;;;;1.10;1.10;;;11.60;99.90;;;;;;5069638;28;20032;-86
2022/09/19 06:33:46;;;;;;;0.38;0.38;;;11.60;99.90;;;;;;5046253;28;20086;-87
2022/09/19 06:36:12;;;;;;;0.50;0.50;;;11.70;99.90;;;;;;5063337;28;20105;-85
2022/09/19 06:38:40;;;;;;;0.35;0.35;;;11.80;99.90;;;;;;5068592;28;20044;-88
2022/09/19 06:41:08;;;;;;;0.35;0.35;;;11.80;99.90;;;;;;5053761;28;20044;-88
2022/09/19 06:43:34;;;;;;;0.40;0.40;;;11.90;99.90;;;;;;5066672;28;20145;-88
2022/09/19 06:45:59;;;;;;;0.50;0.50;;;12.00;99.90;;;;;;5052549;28;20569;-87
2022/09/19 06:48:25;;;;;;;0.40;0.40;;;12.00;99.90;;;;;;5037179;28;20490;-87
2022/09/19 06:50:51;;;;;;;0.35;0.35;;;12.00;99.90;;;;;;5070094;28;20037;-87
2022/09/19 06:53:20;;;;;;;0.35;0.35;;;12.00;99.90;;;;;;5070824;28;20055;-87
2022/09/19 06:55:45;;;;;;;0.60;0.60;;;12.00;99.90;;;;;;5089066;28;20041;-84
2022/09/19 06:58:12;;;;;;;0.43;0.43;;;12.10;99.90;;;;;;5067818;28;20044;-87
2022/09/19 07:00:40;;;;;;;0.30;0.30;;;12.10;99.90;;;;;;5083102;28;20057;-86
2022/09/19 07:03:05;;;;;;;0.40;0.40;;;12.10;99.90;;;;;;5065977;28;20040;-88
2022/09/19 07:05:33;;;;;;;0.30;0.30;;;12.10;99.90;;;;;;5043304;28;20060;-87
2022/09/19 07:07:59;;;;;;;0.40;0.40;;;12.10;99.90;;;;;;5046493;28;20444;-87
2022/09/19 07:10:25;;;;;;;0.30;0.30;;;12.20;99.90;;;;;;5064474;28;20040;-87
2022/09/19 07:12:56;;;;;;;0.40;0.40;;;12.20;99.90;;;;;;5066531;28;20094;-88
2022/09/19 07:15:23;;;;;;;1.00;1.00;;;12.20;99.90;;;;;;5046861;28;20322;-87
2022/09/19 07:17:49;;;;;;;0.40;0.40;;;12.20;99.90;;;;;;5067182;28;20048;-87
2022/09/19 07:20:15;;;;;;;0.50;0.50;;;12.20;99.90;;;;;;5066508;28;20037;-88
2022/09/19 07:22:43;;;;;;;0.95;0.95;;;12.30;99.90;;;;;;5070211;28;20052;-87
2022/09/19 07:25:09;;;;;;;0.40;0.40;;;12.40;99.90;;;;;;5052688;28;20344;-88
2022/09/19 07:27:35;;;;;;;0.40;0.40;;;12.40;99.90;;;;;;5053619;28;20490;-88
2022/09/19 07:30:02;;;;;;;0.93;0.93;;;12.40;99.90;;;;;;5069805;28;20067;-89
2022/09/19 07:32:28;;;;;;;0.40;0.40;;;12.30;99.90;;;;;;5071217;28;20044;-88
2022/09/19 07:34:54;;;;;;;0.60;0.60;;;12.20;99.90;;;;;;5068541;28;20036;-86
2022/09/19 07:37:20;;;;;;;1.33;1.33;;;12.20;99.90;;;;;;5064871;28;20497;-88
2022/09/19 07:39:45;;;;;;;0.40;0.40;;;12.30;99.90;;;;;;5057156;28;20068;-85
2022/09/19 07:42:11;;;;;;;0.32;0.32;;;12.40;99.90;;;;;;5040296;28;20425;-87
2022/09/19 07:44:37;;;;;;;4.85;1.20;;;12.50;99.90;;;;;;5070162;28;20123;-87
2022/09/19 07:49:47;;;;;;;0.40;0.40;;;12.60;99.90;;;;;;5053489;28;20049;-87
2022/09/19 07:52:13;;;;;;;0.45;0.45;;;12.60;99.90;;;;;;5070493;28;20465;-87
2022/09/19 07:54:39;;;;;;;0.50;0.50;;;12.50;99.90;;;;;;5048837;28;20043;-87
2022/09/19 07:57:05;;;;;;;0.30;0.30;;;12.50;99.90;;;;;;5050620;28;20422;-87
2022/09/19 07:59:31;;;;;;;1.30;0.60;;;12.50;99.90;;;;;;5065952;28;20037;-87
2022/09/19 08:01:58;;;;;;;0.38;0.38;;;12.70;99.90;;;;;;5051593;28;20047;-86
2022/09/19 08:04:24;;;;;;;0.88;0.88;;;12.90;99.90;;;;;;5066023;28;20040;-86
2022/09/19 08:06:51;;;;;;;0.45;0.45;;;13.20;99.90;;;;;;5047080;28;20051;-89
2022/09/19 08:09:22;;;;;;;0.40;0.40;;;13.30;99.90;;;;;;5054434;28;20044;-86
2022/09/19 08:11:48;;;;;;;0.38;0.38;;;13.30;99.90;;;;;;5049763;28;20056;-86
2022/09/19 08:14:14;;;;;;;0.30;0.30;;;13.30;99.90;;;;;;5040791;28;20044;-87
2022/09/19 08:16:39;;;;;;;1.15;0.68;;;13.20;99.90;;;;;;5051053;28;20048;-87
2022/09/19 08:19:05;;;;;;;0.70;0.70;;;13.20;99.90;;;;;;5057010;28;20057;-87
2022/09/19 08:21:31;;;;;;;0.93;0.93;;;13.30;99.90;;;;;;5069118;28;20105;-86
2022/09/19 08:23:57;;;;;;;;;;;13.40;99.90;;;;;;5054470;28;20040;-87
2022/09/19 08:26:24;;;;;;;0.55;0.55;;;13.50;99.90;;;;;;5051856;28;20374;-88
2022/09/19 08:28:51;;;;;;;0.30;0.30;;;13.60;99.90;;;;;;5048245;28;20048;-87
2022/09/19 08:31:18;;;;;;;0.40;0.40;;;13.80;99.90;;;;;;5049042;28;20460;-87
2022/09/19 08:33:45;;;;;;;0.30;0.30;;;13.90;99.90;;;;;;5066436;28;20428;-86
2022/09/19 08:36:11;;;;;;;3.40;1.48;;;14.10;99.90;;;;;;5030550;28;20041;-87
2022/09/19 08:38:36;;;;;;;0.50;0.50;;;14.30;99.90;;;;;;5059170;28;20078;-85
2022/09/19 08:41:46;;;;;;;1.05;1.05;;;14.40;99.90;;;;;;5061811;28;20040;-85
2022/09/19 08:44:39;;;;;;;0.30;0.30;;;14.40;99.90;;;;;;5058574;28;20478;-87
2022/09/19 08:47:13;;;;;;;0.32;0.32;;;14.50;99.90;;;;;;5042772;28;20462;-87
2022/09/19 08:49:39;;;;;;;0.30;0.30;;;14.50;99.90;;;;;;5041343;28;20037;-88
2022/09/19 08:52:17;;;;;;;0.30;0.30;;;14.60;99.90;;;;;;5062318;28;20562;-86
2022/09/19 08:54:51;;;;;;;0.40;0.40;;;14.60;99.90;;;;;;5044471;28;20381;-86
2022/09/19 08:57:27;;;;;;;0.28;0.28;;;14.60;99.90;;;;;;5057943;28;20080;-87
2022/09/19 09:00:02;;;;;;;0.45;0.45;;;14.60;99.90;;;;;;5045784;28;20528;-88
2022/09/19 09:03:07;;;;;;;0.17;0.17;;;14.70;99.90;;;;;;5045740;28;20408;-87
2022/09/19 09:05:44;;;;;;;0.30;0.30;;;14.80;99.90;;;;;;5060116;28;20056;-86
2022/09/19 09:08:28;;;;;;;0.40;0.40;;;14.90;99.90;;;;;;5065755;28;20501;-85
2022/09/19 09:11:20;;;;;;;0.30;0.30;;;15.00;99.90;;;;;;5051165;28;20422;-87
2022/09/19 09:14:14;;;;;;;0.50;0.50;;;15.00;99.90;;;;;;5036507;28;20048;-87
2022/09/19 09:16:53;;;;;;;0.40;0.40;;;15.20;99.90;;;;;;5069836;28;20495;-87
2022/09/19 09:19:33;;;;;;;0.30;0.30;;;15.30;99.90;;;;;;5074758;28;20486;-86
2022/09/19 09:22:12;;;;;;;1.38;0.90;;;15.30;99.90;;;;;;5074095;28;20040;-87
2022/09/19 09:25:04;;;;;;;0.30;0.30;;;15.50;99.90;;;;;;5064826;28;20041;-88
2022/09/19 09:27:38;;;;;;;0.20;0.20;;;15.60;99.90;;;;;;5046824;28;20041;-88
2022/09/19 09:30:16;;;;;;;0.30;0.30;;;;;;;;;;5061904;28;20036;-88
2022/09/19 09:32:46;;;;;;;0.20;0.20;;;16.00;99.90;;;;;;5042814;28;20028;-87
2022/09/19 09:35:48;;;;;;;0.20;0.20;;;16.10;99.90;;;;;;5058036;28;20048;-87
2022/09/19 09:38:35;;;;;;;0.25;0.25;;;16.00;99.90;;;;;;5055921;28;20139;-87
2022/09/19 09:44:15;;;;;;;;;;;14.30;99.90;;;;;;5060684;28;20052;-89
2022/09/19 09:47:02;;;;;;;0.20;0.20;;;13.10;99.90;;;;;;5063242;28;20286;-86
2022/09/19 09:49:29;;;;;;;0.30;0.30;;;12.60;99.90;;;;;;5057081;28;20053;-87
2022/09/19 09:52:22;;;;;;;0.40;0.40;;;12.10;99.90;;;;;;5045540;28;20032;-89
2022/09/19 09:58:00;;;;;;;0.30;0.30;;;12.00;99.90;;;;;;5073192;28;20151;-89
2022/09/19 10:06:18;;;;;;;0.30;0.30;;;12.40;99.90;;;;;;5056516;28;20053;-89
2022/09/19 10:09:02;;;;;;;0.30;0.30;;;12.50;99.90;;;;;;5055993;28;20059;-90
2022/09/19 10:11:54;;;;;;;0.30;0.30;;;12.70;99.90;;;;;;5044940;28;20185;-88
2022/09/19 10:14:23;;;;;;;0.40;0.40;;;12.90;99.90;;;;;;5059372;28;20136;-89
2022/09/19 10:16:53;;;;;;;0.50;0.50;;;13.20;99.90;;;;;;5041250;28;20726;-87
2022/09/19 10:19:35;;;;;;;0.38;0.38;;;13.50;99.90;;;;;;5058165;28;20048;-87
2022/09/19 10:22:01;;;;;;;0.30;0.30;;;13.80;99.90;;;;;;5060929;28;20076;-87
2022/09/19 10:24:46;;;;;;;0.52;0.52;;;13.90;99.90;;;;;;5041520;28;20643;-87
2022/09/19 10:27:13;;;;;;;0.30;0.30;;;14.00;99.90;;;;;;5056387;28;20120;-89
2022/09/19 10:30:11;;;;;;;2.70;1.60;;;14.20;99.90;;;;;;5057814;28;20044;-88
2022/09/19 10:32:37;;;;;;;0.80;0.80;;;14.40;99.90;;;;;;5056852;28;20645;-87
2022/09/19 10:35:30;;;;;;;0.30;0.30;;;14.60;99.90;;;;;;5063051;28;20048;-87
2022/09/19 10:38:15;;;;;;;0.40;0.40;;;14.70;99.90;;;;;;5062719;28;20163;-88
2022/09/19 10:40:56;;;;;;;0.57;0.55;;;14.70;99.90;;;;;;5045088;28;20474;-88
2022/09/19 10:43:24;;;;;;;2.28;2.17;;;14.20;99.90;;;;;;5062592;28;20165;-88
2022/09/19 10:45:50;;;;;;;0.32;0.32;;;13.50;99.90;;;;;;5048954;28;20037;-88
2022/09/19 10:48:30;;;;;;;0.30;0.30;;;13.10;99.90;;;;;;5034933;28;20032;-88
2022/09/19 10:50:57;;;;;;;0.40;0.40;;;12.90;99.90;;;;;;5050828;28;20037;-88
2022/09/19 10:53:32;;;;;;;0.40;0.40;;;12.80;99.90;;;;;;5089424;28;20389;-89
2022/09/19 10:56:11;;;;;;;0.38;0.38;;;12.90;99.90;;;;;;5061971;28;20044;-88
2022/09/19 10:58:42;;;;;;;0.25;0.25;;;13.00;99.90;;;;;;5069887;28;20041;-89
2022/09/19 11:01:21;;;;;;;0.30;0.30;;;13.10;99.90;;;;;;5055727;28;20055;-88
2022/09/19 11:04:01;;;;;;;1.15;1.15;;;13.30;99.90;;;;;;5047652;28;20075;-89
2022/09/19 11:06:28;;;;;;;0.30;0.30;;;13.40;99.90;;;;;;5064587;28;20056;-89
2022/09/19 11:08:55;;;;;;;0.30;0.30;;;13.60;99.90;;;;;;5043729;28;20052;-86
2022/09/19 11:11:40;;;;;;;0.30;0.30;;;13.90;99.90;;;;;;5087676;28;20101;-89
2022/09/19 11:14:32;;;;;;;0.40;0.40;;;14.10;99.90;;;;;;5057601;28;20068;-89
2022/09/19 11:17:37;;;;;;;0.47;0.38;;;14.40;99.90;;;;;;5075973;28;20044;-88
2022/09/19 11:20:40;;;;;;;0.22;0.22;;;14.70;99.90;;;;;;5075755;28;20044;-86
2022/09/19 11:23:29;;;;;;;0.30;0.30;;;15.00;99.90;;;;;;5070106;28;20354;-88
2022/09/19 11:26:14;;;;;;;0.30;0.30;;;15.20;99.90;;;;;;5073646;28;20044;-89
2022/09/19 11:29:02;;;;;;;0.40;0.40;;;15.20;99.90;;;;;;5084363;28;20051;-88
2022/09/19 11:31:44;;;;;;;1.67;0.77;;;15.30;99.90;;;;;;5070332;28;20044;-87
2022/09/19 11:34:31;;;;;;;0.20;0.20;;;15.40;99.90;;;;;;5056643;28;20036;-89
2022/09/19 11:37:25;;;;;;;0.30;0.30;;;15.50;99.90;;;;;;5078667;28;20664;-88
2022/09/19 11:40:18;;;;;;;0.20;0.20;;;15.40;99.90;;;;;;5052883;28;20044;-87
2022/09/19 11:43:02;;;;;;;0.30;0.30;;;15.40;99.90;;;;;;5065974;28;20147;-90
2022/09/19 11:45:53;;;;;;;0.40;0.40;;;15.50;99.90;;;;;;5081131;28;20036;-85
2022/09/19 11:48:45;;;;;;;0.40;0.40;;;15.70;99.90;;;;;;5080305;28;20049;-88
2022/09/19 11:51:30;;;;;;;0.30;0.30;;;15.90;99.90;;;;;;5081457;28;20051;-88
2022/09/19 11:54:02;;;;;;;0.30;0.30;;;16.20;99.90;;;;;;5071662;28;20436;-88
2022/09/19 11:56:59;;;;;;;0.30;0.30;;;16.30;99.90;;;;;;5089359;28;20044;-87
2022/09/19 11:59:50;;;;;;;1.23;1.20;;;16.30;99.90;;;;;;5054345;28;20092;-88
2022/09/19 12:02:46;;;;;;;0.70;0.70;;;16.30;99.90;;;;;;5071175;28;20103;-89
2022/09/19 12:05:28;;;;;;;0.75;0.75;;;16.30;99.90;;;;;;5072054;28;20080;-89
2022/09/19 12:08:22;;;;;;;0.30;0.30;;;16.20;99.90;;;;;;5071355;28;20040;-89
2022/09/19 12:10:54;;;;;;;0.30;0.30;;;16.30;99.90;;;;;;5056901;28;20032;-89
2022/09/19 12:13:23;;;;;;;0.40;0.40;;;16.30;99.90;;;;;;5070526;28;20431;-88
2022/09/19 12:16:20;;;;;;;0.30;0.30;;;16.00;99.90;;;;;;5060034;28;20055;-88
2022/09/19 12:18:52;;;;;;;0.38;0.38;;;15.90;99.90;;;;;;5089434;28;20024;-88
2022/09/19 12:21:22;;;;;;;0.35;0.35;;;16.10;99.90;;;;;;5061380;28;20047;-88
2022/09/19 12:27:04;;;;;;;0.20;0.20;;;16.00;99.90;;;;;;5079089;28;20056;-88
2022/09/19 12:29:39;;;;;;;0.50;0.50;;;16.00;99.90;;;;;;5066019;28;20040;-88
2022/09/19 12:32:23;;;;;;;0.52;0.52;;;16.10;99.90;;;;;;5034058;28;20037;-89
2022/09/19 12:35:04;;;;;;;0.30;0.30;;;16.20;99.90;;;;;;5068538;28;20040;-87
2022/09/19 12:37:36;;;;;;;1.35;1.25;;;16.20;99.90;;;;;;5050499;28;20619;-87
2022/09/19 12:40:29;;;;;;;0.20;0.20;;;16.30;99.90;;;;;;5049545;28;20091;-89
2022/09/19 12:43:17;;;;;;;0.57;0.57;;;16.40;99.90;;;;;;5048505;28;20047;-87
2022/09/19 12:45:58;;;;;;;0.28;0.28;;;16.50;99.90;;;;;;5065997;28;21388;-89
2022/09/19 12:48:47;;;;;;;0.20;0.20;;;16.60;99.90;;;;;;5064527;28;20055;-87
2022/09/19 12:51:25;;;;;;;0.40;0.40;;;16.50;99.90;;;;;;5048180;28;20041;-88
2022/09/19 12:54:24;;;;;;;0.60;0.60;;;16.60;99.90;;;;;;5036486;28;20028;-87
2022/09/19 12:57:05;;;;;;;0.20;0.20;;;16.90;99.90;;;;;;5046442;28;20083;-88
2022/09/19 12:59:34;;;;;;;0.30;0.30;;;17.00;99.90;;;;;;5063790;28;20048;-87
2022/09/19 13:02:19;;;;;;;0.30;0.30;;;16.90;99.90;;;;;;5064445;28;20041;-87
2022/09/19 13:04:59;;;;;;;0.75;0.75;;;16.60;99.90;;;;;;5069720;28;20045;-90
2022/09/19 13:07:47;;;;;;;1.65;1.27;;;16.30;99.90;;;;;;5081641;28;20044;-87
2022/09/19 13:10:19;;;;;;;7.32;0.65;;;16.20;99.90;;;;;;5045708;28;20047;-88
2022/09/19 13:13:06;;;;;;;0.20;0.20;;;16.00;99.90;;;;;;5067638;28;20041;-87
2022/09/19 13:15:48;;;;;;;0.20;0.20;;;15.70;99.90;;;;;;5045691;28;20040;-90
2022/09/19 13:23:55;;;;;;;0.65;0.65;;;15.80;99.90;;;;;;5053498;28;20334;-89
2022/09/19 13:26:32;;;;;;;0.20;0.20;;;16.20;99.90;;;;;;5061233;28;20071;-90
2022/09/19 13:28:59;;;;;;;4.03;1.05;;;16.60;99.90;;;;;;5045304;28;20056;-90
2022/09/19 13:31:55;;;;;;;3.58;0.85;;;17.10;99.90;;;;;;5045811;28;20040;-89
2022/09/19 13:34:33;;;;;;;0.20;0.20;;;17.30;99.90;;;;;;5051378;28;20484;-90
2022/09/19 13:37:22;;;;;;;0.20;0.20;;;17.10;99.90;;;;;;5070489;28;20474;-88
2022/09/19 13:40:13;;;;;;;0.30;0.30;;;17.00;99.90;;;;;;5073730;28;20455;-88
2022/09/19 13:42:58;;;;;;;0.30;0.30;;;17.00;99.90;;;;;;5053007;28;20040;-89
2022/09/19 13:45:49;;;;;;;0.20;0.20;;;16.90;99.90;;;;;;5065128;28;20029;-88
2022/09/19 13:48:26;;;;;;;0.20;0.20;;;16.60;99.90;;;;;;5068748;28;20041;-88
2022/09/19 13:51:03;;;;;;;0.20;0.20;;;16.30;99.90;;;;;;5055348;28;20032;-90
2022/09/19 13:53:55;;;;;;;0.45;0.45;;;15.90;99.90;;;;;;5055889;28;20040;-90